AAL3007 KDFW-KLAX
Flight info
| Callsign | AAL3007 |
|---|---|
| Flight time | 2h 38m |
| Altitude | 38000 |
| Route | KATZZ2 BRHMA CNX MAXXO J74 DRYHT HIPPI GABBL HLYWD1 |
| Aircraft | B77W/H-SDE1E2E3FGHIJ2J3J4J5M1RWXY/LB1D1 |
Departure
| Time | 2026-05-07 13:06 |
|---|---|
| Airport | Dallas Fort Worth International Airport (KDFW) |
Arrival
| Time | 2026-05-07 15:44 |
|---|---|
| Airport | Los Angeles International Airport (KLAX) |
| Time | Latitude | Longitude | Altitude | Speed | Heading |
|---|---|---|---|---|---|
| 2026-05-07 12:40 | 32.89950 | -97.04575 | 603 ft | 0 kts | 109° |
| 2026-05-07 12:54 | 32.89955 | -97.04593 | 603 ft | 4 kts | 109° |
| 2026-05-07 12:54 | 32.89964 | -97.04623 | 603 ft | 4 kts | 109° |
| 2026-05-07 12:54 | 32.89971 | -97.04647 | 603 ft | 4 kts | 120° |
| 2026-05-07 12:55 | 32.89988 | -97.04664 | 603 ft | 4 kts | 178° |
| 2026-05-07 12:55 | 32.90013 | -97.04664 | 603 ft | 4 kts | 180° |
| 2026-05-07 12:55 | 32.90030 | -97.04664 | 603 ft | 0 kts | 180° |
| 2026-05-07 13:00 | 32.90007 | -97.04665 | 603 ft | 8 kts | 180° |
| 2026-05-07 13:00 | 32.89944 | -97.04698 | 603 ft | 12 kts | 224° |
| 2026-05-07 13:01 | 32.89867 | -97.04758 | 602 ft | 18 kts | 192° |
| 2026-05-07 13:01 | 32.89747 | -97.04764 | 602 ft | 22 kts | 180° |
| 2026-05-07 13:01 | 32.89585 | -97.04765 | 603 ft | 23 kts | 180° |
| 2026-05-07 13:01 | 32.89428 | -97.04766 | 608 ft | 21 kts | 180° |
| 2026-05-07 13:02 | 32.89286 | -97.04766 | 600 ft | 24 kts | 180° |
| 2026-05-07 13:02 | 32.89104 | -97.04768 | 597 ft | 19 kts | 180° |
| 2026-05-07 13:02 | 32.89006 | -97.04769 | 595 ft | 21 kts | 180° |
| 2026-05-07 13:02 | 32.88851 | -97.04770 | 596 ft | 22 kts | 180° |
| 2026-05-07 13:03 | 32.88693 | -97.04769 | 594 ft | 22 kts | 180° |
| 2026-05-07 13:03 | 32.88547 | -97.04771 | 592 ft | 14 kts | 184° |
| 2026-05-07 13:03 | 32.88446 | -97.04802 | 594 ft | 21 kts | 188° |
| 2026-05-07 13:03 | 32.88276 | -97.04806 | 593 ft | 26 kts | 180° |
| 2026-05-07 13:04 | 32.88102 | -97.04808 | 591 ft | 23 kts | 180° |
| 2026-05-07 13:04 | 32.87973 | -97.04808 | 592 ft | 17 kts | 180° |
| 2026-05-07 13:04 | 32.87914 | -97.04865 | 591 ft | 12 kts | 259° |
| 2026-05-07 13:04 | 32.87912 | -97.04987 | 590 ft | 11 kts | 269° |
| 2026-05-07 13:05 | 32.87915 | -97.05056 | 591 ft | 6 kts | 292° |
| 2026-05-07 13:05 | 32.87969 | -97.05088 | 593 ft | 9 kts | 354° |
| 2026-05-07 13:05 | 32.87998 | -97.05090 | 594 ft | 0 kts | 358° |
| 2026-05-07 13:05 | 32.88027 | -97.05091 | 594 ft | 22 kts | 359° |
| 2026-05-07 13:06 | 32.88477 | -97.05090 | 594 ft | 106 kts | 0° |
| 2026-05-07 13:06 | 32.89459 | -97.05096 | 662 ft | 166 kts | 358° |
| 2026-05-07 13:06 | 32.90616 | -97.05125 | 1391 ft | 168 kts | 359° |
| 2026-05-07 13:06 | 32.91815 | -97.05182 | 2181 ft | 175 kts | 359° |
| 2026-05-07 13:07 | 32.93077 | -97.05230 | 2739 ft | 193 kts | 1° |
| 2026-05-07 13:07 | 32.94518 | -97.05297 | 2986 ft | 222 kts | 352° |
| 2026-05-07 13:07 | 32.96068 | -97.05860 | 3525 ft | 239 kts | 342° |
| 2026-05-07 13:07 | 32.97615 | -97.06548 | 4420 ft | 242 kts | 341° |
| 2026-05-07 13:08 | 32.99166 | -97.07306 | 5339 ft | 243 kts | 330° |
| 2026-05-07 13:08 | 33.00379 | -97.08738 | 6066 ft | 252 kts | 300° |
| 2026-05-07 13:08 | 33.00988 | -97.10683 | 7009 ft | 250 kts | 279° |
| 2026-05-07 13:08 | 33.01034 | -97.12744 | 7930 ft | 250 kts | 268° |
| 2026-05-07 13:09 | 33.00898 | -97.14813 | 8816 ft | 251 kts | 266° |
| 2026-05-07 13:09 | 33.00744 | -97.16888 | 9731 ft | 253 kts | 265° |
| 2026-05-07 13:09 | 33.00525 | -97.19012 | 10390 ft | 265 kts | 264° |
| 2026-05-07 13:09 | 33.00284 | -97.21259 | 10646 ft | 291 kts | 264° |
| 2026-05-07 13:10 | 33.00024 | -97.23765 | 10880 ft | 319 kts | 264° |
| 2026-05-07 13:10 | 32.99847 | -97.25457 | 11063 ft | 334 kts | 264° |
| 2026-05-07 13:10 | 32.99801 | -97.25896 | 11153 ft | 336 kts | 264° |
| 2026-05-07 13:10 | 32.99508 | -97.28685 | 12010 ft | 342 kts | 264° |
| 2026-05-07 13:11 | 32.99211 | -97.31502 | 13207 ft | 341 kts | 264° |
| 2026-05-07 13:11 | 32.98916 | -97.34293 | 14449 ft | 339 kts | 264° |
| 2026-05-07 13:11 | 32.98622 | -97.37082 | 15556 ft | 340 kts | 264° |
| 2026-05-07 13:11 | 32.98328 | -97.39887 | 16578 ft | 343 kts | 264° |
| 2026-05-07 13:12 | 32.98031 | -97.42711 | 17575 ft | 346 kts | 263° |
| 2026-05-07 13:12 | 32.97734 | -97.45528 | 18538 ft | 349 kts | 263° |
| 2026-05-07 13:12 | 32.97431 | -97.48402 | 19391 ft | 351 kts | 263° |
| 2026-05-07 13:12 | 32.97125 | -97.51298 | 20090 ft | 355 kts | 263° |
| 2026-05-07 13:13 | 32.96814 | -97.54230 | 20896 ft | 358 kts | 263° |
| 2026-05-07 13:13 | 32.96501 | -97.57181 | 21666 ft | 362 kts | 263° |
| 2026-05-07 13:13 | 32.96183 | -97.60169 | 22394 ft | 366 kts | 263° |
| 2026-05-07 13:13 | 32.95860 | -97.63197 | 23082 ft | 371 kts | 263° |
| 2026-05-07 13:14 | 32.95533 | -97.66258 | 23760 ft | 375 kts | 263° |
| 2026-05-07 13:14 | 32.95207 | -97.69307 | 24387 ft | 377 kts | 262° |
| 2026-05-07 13:14 | 32.94874 | -97.72407 | 25054 ft | 378 kts | 262° |
| 2026-05-07 13:14 | 32.94539 | -97.75519 | 25692 ft | 380 kts | 262° |
| 2026-05-07 13:15 | 32.94202 | -97.78643 | 26316 ft | 382 kts | 261° |
| 2026-05-07 13:15 | 32.93861 | -97.81789 | 26914 ft | 384 kts | 261° |
| 2026-05-07 13:15 | 32.93518 | -97.84957 | 27502 ft | 387 kts | 261° |
| 2026-05-07 13:15 | 32.93171 | -97.88144 | 28088 ft | 389 kts | 261° |
| 2026-05-07 13:16 | 32.92823 | -97.91343 | 28650 ft | 391 kts | 260° |
| 2026-05-07 13:16 | 32.92471 | -97.94566 | 29286 ft | 394 kts | 260° |
| 2026-05-07 13:16 | 32.92117 | -97.97804 | 29762 ft | 396 kts | 260° |
| 2026-05-07 13:16 | 32.91764 | -98.01028 | 30152 ft | 400 kts | 260° |
| 2026-05-07 13:17 | 32.91402 | -98.04319 | 30502 ft | 403 kts | 259° |
| 2026-05-07 13:17 | 32.91038 | -98.07627 | 30856 ft | 404 kts | 259° |
| 2026-05-07 13:17 | 32.90673 | -98.10942 | 31267 ft | 403 kts | 259° |
| 2026-05-07 13:17 | 32.90308 | -98.14240 | 31778 ft | 400 kts | 259° |
| 2026-05-07 13:18 | 32.90009 | -98.17526 | 32286 ft | 400 kts | 263° |
| 2026-05-07 13:18 | 32.90031 | -98.20835 | 32791 ft | 400 kts | 268° |
| 2026-05-07 13:18 | 32.90227 | -98.24095 | 33227 ft | 400 kts | 269° |
| 2026-05-07 13:18 | 32.90528 | -98.27383 | 33664 ft | 401 kts | 271° |
| 2026-05-07 13:19 | 32.91071 | -98.30650 | 34093 ft | 405 kts | 277° |
| 2026-05-07 13:19 | 32.91808 | -98.33882 | 34480 ft | 404 kts | 278° |
| 2026-05-07 13:19 | 32.92565 | -98.37101 | 34838 ft | 403 kts | 278° |
| 2026-05-07 13:19 | 32.93322 | -98.40309 | 35173 ft | 403 kts | 277° |
| 2026-05-07 13:20 | 32.94075 | -98.43512 | 35549 ft | 401 kts | 277° |
| 2026-05-07 13:20 | 32.94818 | -98.46703 | 35912 ft | 399 kts | 277° |
| 2026-05-07 13:20 | 32.95553 | -98.49879 | 36264 ft | 397 kts | 277° |
| 2026-05-07 13:20 | 32.96271 | -98.53005 | 36593 ft | 396 kts | 277° |
| 2026-05-07 13:21 | 32.96993 | -98.56161 | 36917 ft | 395 kts | 277° |
| 2026-05-07 13:21 | 32.97713 | -98.59314 | 37229 ft | 394 kts | 277° |
| 2026-05-07 13:21 | 32.98428 | -98.62457 | 37558 ft | 393 kts | 277° |
| 2026-05-07 13:21 | 32.99141 | -98.65589 | 37883 ft | 391 kts | 277° |
| 2026-05-07 13:22 | 32.99851 | -98.68717 | 38085 ft | 392 kts | 277° |
| 2026-05-07 13:22 | 33.00564 | -98.71869 | 38120 ft | 395 kts | 277° |
| 2026-05-07 13:22 | 33.01986 | -98.78153 | 38176 ft | 394 kts | 277° |
| 2026-05-07 13:23 | 33.03406 | -98.84420 | 38186 ft | 390 kts | 277° |
| 2026-05-07 13:23 | 33.04810 | -98.90647 | 38186 ft | 388 kts | 277° |
| 2026-05-07 13:24 | 33.06205 | -98.96857 | 38182 ft | 388 kts | 277° |
| 2026-05-07 13:24 | 33.07599 | -99.03079 | 38183 ft | 388 kts | 277° |
| 2026-05-07 13:25 | 33.08983 | -99.09264 | 38192 ft | 389 kts | 277° |
| 2026-05-07 13:25 | 33.10377 | -99.15515 | 38186 ft | 391 kts | 277° |
| 2026-05-07 13:26 | 33.11773 | -99.21791 | 38185 ft | 392 kts | 277° |
| 2026-05-07 13:26 | 33.13171 | -99.28088 | 38187 ft | 393 kts | 277° |
| 2026-05-07 13:27 | 33.14561 | -99.34362 | 38185 ft | 394 kts | 277° |
| 2026-05-07 13:27 | 33.15959 | -99.40689 | 38188 ft | 394 kts | 277° |
| 2026-05-07 13:28 | 33.17353 | -99.47019 | 38184 ft | 394 kts | 277° |
| 2026-05-07 13:28 | 33.18745 | -99.53354 | 38186 ft | 395 kts | 277° |
| 2026-05-07 13:29 | 33.20126 | -99.59652 | 38189 ft | 395 kts | 277° |
| 2026-05-07 13:29 | 33.21554 | -99.65997 | 38187 ft | 396 kts | 277° |
| 2026-05-07 13:30 | 33.22999 | -99.72335 | 38190 ft | 396 kts | 277° |
| 2026-05-07 13:30 | 33.24439 | -99.78675 | 38190 ft | 395 kts | 277° |
| 2026-05-07 13:31 | 33.25862 | -99.84972 | 38186 ft | 395 kts | 277° |
| 2026-05-07 13:31 | 33.27290 | -99.91319 | 38189 ft | 396 kts | 277° |
| 2026-05-07 13:32 | 33.28718 | -99.97680 | 38218 ft | 397 kts | 277° |
| 2026-05-07 13:32 | 33.30145 | -100.04056 | 38188 ft | 397 kts | 277° |
| 2026-05-07 13:33 | 33.31560 | -100.10388 | 38187 ft | 396 kts | 277° |
| 2026-05-07 13:33 | 33.32978 | -100.16755 | 38172 ft | 396 kts | 277° |
| 2026-05-07 13:34 | 33.35098 | -100.26305 | 38171 ft | 396 kts | 277° |
| 2026-05-07 13:35 | 33.36269 | -100.31597 | 38165 ft | 397 kts | 277° |
| 2026-05-07 13:35 | 33.37678 | -100.37980 | 38176 ft | 397 kts | 277° |
| 2026-05-07 13:36 | 33.39314 | -100.45413 | 38175 ft | 398 kts | 277° |
| 2026-05-07 13:36 | 33.40720 | -100.51816 | 38169 ft | 398 kts | 276° |
| 2026-05-07 13:37 | 33.41886 | -100.57139 | 38170 ft | 398 kts | 276° |
| 2026-05-07 13:37 | 33.43287 | -100.63553 | 38162 ft | 399 kts | 276° |
| 2026-05-07 13:38 | 33.44915 | -100.71027 | 38169 ft | 400 kts | 276° |
| 2026-05-07 13:38 | 33.46078 | -100.76385 | 38162 ft | 400 kts | 276° |
| 2026-05-07 13:39 | 33.47477 | -100.82840 | 38163 ft | 401 kts | 276° |
| 2026-05-07 13:39 | 33.48875 | -100.89307 | 38159 ft | 401 kts | 276° |
| 2026-05-07 13:40 | 33.50268 | -100.95766 | 38157 ft | 400 kts | 276° |
| 2026-05-07 13:40 | 33.51653 | -101.02207 | 38150 ft | 399 kts | 276° |
| 2026-05-07 13:41 | 33.52994 | -101.08592 | 38159 ft | 397 kts | 276° |
| 2026-05-07 13:41 | 33.54288 | -101.15014 | 38150 ft | 396 kts | 276° |
| 2026-05-07 13:42 | 33.55574 | -101.21425 | 38157 ft | 395 kts | 276° |
| 2026-05-07 13:42 | 33.56858 | -101.27826 | 38157 ft | 395 kts | 276° |
| 2026-05-07 13:43 | 33.58134 | -101.34190 | 38144 ft | 396 kts | 276° |
| 2026-05-07 13:43 | 33.59419 | -101.40615 | 38158 ft | 397 kts | 276° |
| 2026-05-07 13:44 | 33.60707 | -101.47065 | 38171 ft | 398 kts | 276° |
| 2026-05-07 13:44 | 33.61995 | -101.53538 | 38184 ft | 400 kts | 276° |
| 2026-05-07 13:45 | 33.63284 | -101.60032 | 38193 ft | 400 kts | 276° |
| 2026-05-07 13:45 | 33.64562 | -101.66488 | 38208 ft | 401 kts | 275° |
| 2026-05-07 13:46 | 33.65847 | -101.73001 | 38255 ft | 401 kts | 276° |
| 2026-05-07 13:46 | 33.67129 | -101.79521 | 38227 ft | 401 kts | 276° |
| 2026-05-07 13:47 | 33.68400 | -101.85994 | 38221 ft | 401 kts | 276° |
| 2026-05-07 13:47 | 33.69672 | -101.92496 | 38217 ft | 400 kts | 276° |
| 2026-05-07 13:48 | 33.70938 | -101.98991 | 38201 ft | 399 kts | 276° |
| 2026-05-07 13:48 | 33.72199 | -102.05475 | 38189 ft | 399 kts | 276° |
| 2026-05-07 13:49 | 33.73456 | -102.11963 | 38170 ft | 399 kts | 276° |
| 2026-05-07 13:49 | 33.74701 | -102.18410 | 38155 ft | 399 kts | 276° |
| 2026-05-07 13:50 | 33.75953 | -102.24908 | 38132 ft | 399 kts | 276° |
| 2026-05-07 13:50 | 33.77202 | -102.31410 | 38136 ft | 400 kts | 276° |
| 2026-05-07 13:51 | 33.78449 | -102.37925 | 38137 ft | 400 kts | 276° |
| 2026-05-07 13:51 | 33.79686 | -102.44406 | 38145 ft | 401 kts | 276° |
| 2026-05-07 13:52 | 33.80931 | -102.50950 | 38138 ft | 402 kts | 276° |
| 2026-05-07 13:52 | 33.82175 | -102.57503 | 38141 ft | 402 kts | 275° |
| 2026-05-07 13:53 | 33.83417 | -102.64068 | 38140 ft | 403 kts | 276° |
| 2026-05-07 13:53 | 33.84650 | -102.70606 | 38133 ft | 404 kts | 276° |
| 2026-05-07 13:54 | 33.85888 | -102.77190 | 38135 ft | 403 kts | 276° |
| 2026-05-07 13:54 | 33.87123 | -102.83777 | 38138 ft | 404 kts | 276° |
| 2026-05-07 13:55 | 33.88356 | -102.90380 | 38139 ft | 405 kts | 276° |
| 2026-05-07 13:55 | 33.89579 | -102.96945 | 38140 ft | 405 kts | 275° |
| 2026-05-07 13:56 | 33.90808 | -103.03562 | 38145 ft | 405 kts | 275° |
| 2026-05-07 13:56 | 33.92033 | -103.10184 | 38132 ft | 405 kts | 275° |
| 2026-05-07 13:57 | 33.93256 | -103.16811 | 38133 ft | 406 kts | 275° |
| 2026-05-07 13:57 | 33.94468 | -103.23405 | 38134 ft | 406 kts | 275° |
| 2026-05-07 13:58 | 33.95687 | -103.30052 | 38140 ft | 406 kts | 275° |
| 2026-05-07 13:58 | 33.96901 | -103.36698 | 38136 ft | 407 kts | 275° |
| 2026-05-07 13:59 | 33.98105 | -103.43309 | 38136 ft | 407 kts | 275° |
| 2026-05-07 13:59 | 33.99314 | -103.49970 | 38164 ft | 407 kts | 275° |
| 2026-05-07 14:00 | 34.00522 | -103.56647 | 38149 ft | 408 kts | 275° |
| 2026-05-07 14:00 | 34.01728 | -103.63331 | 38143 ft | 408 kts | 275° |
| 2026-05-07 14:01 | 34.02930 | -103.70020 | 38141 ft | 408 kts | 275° |
| 2026-05-07 14:01 | 34.04122 | -103.76671 | 38145 ft | 409 kts | 275° |
| 2026-05-07 14:02 | 34.05319 | -103.83371 | 38109 ft | 409 kts | 275° |
| 2026-05-07 14:02 | 34.06513 | -103.90080 | 38089 ft | 410 kts | 275° |
| 2026-05-07 14:03 | 34.07705 | -103.96802 | 38096 ft | 410 kts | 275° |
| 2026-05-07 14:03 | 34.08888 | -104.03493 | 38112 ft | 411 kts | 275° |
| 2026-05-07 14:04 | 34.10076 | -104.10237 | 38114 ft | 411 kts | 275° |
| 2026-05-07 14:04 | 34.11262 | -104.16986 | 38116 ft | 411 kts | 275° |
| 2026-05-07 14:05 | 34.12444 | -104.23739 | 38121 ft | 411 kts | 275° |
| 2026-05-07 14:05 | 34.13615 | -104.30457 | 38112 ft | 412 kts | 275° |
| 2026-05-07 14:06 | 34.14792 | -104.37228 | 38137 ft | 413 kts | 276° |
| 2026-05-07 14:06 | 34.15968 | -104.44016 | 38125 ft | 413 kts | 276° |
| 2026-05-07 14:07 | 34.17142 | -104.50815 | 38130 ft | 414 kts | 276° |
| 2026-05-07 14:07 | 34.18312 | -104.57619 | 38130 ft | 414 kts | 275° |
| 2026-05-07 14:08 | 34.19472 | -104.64383 | 38128 ft | 414 kts | 275° |
| 2026-05-07 14:08 | 34.20636 | -104.71191 | 38138 ft | 414 kts | 275° |
| 2026-05-07 14:09 | 34.21795 | -104.77998 | 38136 ft | 413 kts | 275° |
| 2026-05-07 14:09 | 34.22949 | -104.84808 | 38145 ft | 413 kts | 275° |
| 2026-05-07 14:10 | 34.24092 | -104.91567 | 38129 ft | 414 kts | 275° |
| 2026-05-07 14:10 | 34.25240 | -104.98380 | 38142 ft | 414 kts | 275° |
| 2026-05-07 14:11 | 34.26385 | -105.05204 | 38146 ft | 414 kts | 275° |
| 2026-05-07 14:11 | 34.27527 | -105.12035 | 38148 ft | 415 kts | 275° |
| 2026-05-07 14:12 | 34.28660 | -105.18834 | 38144 ft | 415 kts | 275° |
| 2026-05-07 14:12 | 34.29798 | -105.25692 | 38155 ft | 417 kts | 276° |
| 2026-05-07 14:13 | 34.30936 | -105.32574 | 38152 ft | 418 kts | 276° |
| 2026-05-07 14:13 | 34.32077 | -105.39490 | 38154 ft | 420 kts | 276° |
| 2026-05-07 14:14 | 34.33218 | -105.46438 | 38148 ft | 422 kts | 276° |
| 2026-05-07 14:14 | 34.34351 | -105.53364 | 38152 ft | 423 kts | 276° |
| 2026-05-07 14:15 | 34.35491 | -105.60352 | 38161 ft | 423 kts | 276° |
| 2026-05-07 14:15 | 34.36568 | -105.67352 | 38159 ft | 422 kts | 272° |
| 2026-05-07 14:16 | 34.36932 | -105.74393 | 38168 ft | 419 kts | 268° |
| 2026-05-07 14:16 | 34.37117 | -105.81401 | 38164 ft | 420 kts | 268° |
| 2026-05-07 14:17 | 34.37314 | -105.88470 | 38163 ft | 421 kts | 268° |
| 2026-05-07 14:17 | 34.37516 | -105.95550 | 38151 ft | 421 kts | 268° |
| 2026-05-07 14:18 | 34.37716 | -106.02637 | 38154 ft | 422 kts | 268° |
| 2026-05-07 14:18 | 34.37910 | -106.09695 | 38161 ft | 423 kts | 268° |
| 2026-05-07 14:19 | 34.38102 | -106.16817 | 38157 ft | 424 kts | 268° |
| 2026-05-07 14:19 | 34.38290 | -106.23950 | 38144 ft | 424 kts | 268° |
| 2026-05-07 14:20 | 34.38473 | -106.31040 | 38141 ft | 424 kts | 268° |
| 2026-05-07 14:20 | 34.38654 | -106.38178 | 38131 ft | 425 kts | 268° |
| 2026-05-07 14:21 | 34.38830 | -106.45372 | 38143 ft | 430 kts | 268° |
| 2026-05-07 14:21 | 34.39004 | -106.52644 | 38124 ft | 434 kts | 268° |
| 2026-05-07 14:22 | 34.39176 | -106.59934 | 38124 ft | 438 kts | 268° |
| 2026-05-07 14:22 | 34.39347 | -106.67318 | 38117 ft | 440 kts | 268° |
| 2026-05-07 14:23 | 34.39511 | -106.74729 | 38108 ft | 441 kts | 268° |
| 2026-05-07 14:23 | 34.39673 | -106.82170 | 38114 ft | 442 kts | 268° |
| 2026-05-07 14:24 | 34.39831 | -106.89609 | 38109 ft | 442 kts | 268° |
| 2026-05-07 14:24 | 34.39983 | -106.96998 | 38108 ft | 442 kts | 268° |
| 2026-05-07 14:25 | 34.40132 | -107.04428 | 38105 ft | 441 kts | 268° |
| 2026-05-07 14:25 | 34.40278 | -107.11852 | 38113 ft | 441 kts | 268° |
| 2026-05-07 14:26 | 34.40415 | -107.19293 | 38101 ft | 442 kts | 268° |
| 2026-05-07 14:26 | 34.40550 | -107.26697 | 38108 ft | 443 kts | 268° |
| 2026-05-07 14:27 | 34.40682 | -107.34161 | 38109 ft | 444 kts | 268° |
| 2026-05-07 14:27 | 34.40809 | -107.41631 | 38113 ft | 444 kts | 268° |
| 2026-05-07 14:28 | 34.40931 | -107.49075 | 38111 ft | 446 kts | 268° |
| 2026-05-07 14:28 | 34.41049 | -107.56587 | 38111 ft | 447 kts | 268° |
| 2026-05-07 14:29 | 34.41163 | -107.64125 | 38117 ft | 448 kts | 268° |
| 2026-05-07 14:29 | 34.41273 | -107.71683 | 38119 ft | 449 kts | 268° |
| 2026-05-07 14:30 | 34.41378 | -107.79253 | 38099 ft | 450 kts | 268° |
| 2026-05-07 14:30 | 34.41480 | -107.86788 | 38112 ft | 451 kts | 268° |
| 2026-05-07 14:31 | 34.41576 | -107.94379 | 38132 ft | 452 kts | 269° |
| 2026-05-07 14:31 | 34.41668 | -108.02018 | 38126 ft | 455 kts | 269° |
| 2026-05-07 14:32 | 34.41757 | -108.09688 | 38123 ft | 456 kts | 269° |
| 2026-05-07 14:32 | 34.41891 | -108.17327 | 38121 ft | 458 kts | 270° |
| 2026-05-07 14:33 | 34.42268 | -108.25045 | 38114 ft | 459 kts | 271° |
| 2026-05-07 14:33 | 34.42687 | -108.32753 | 38117 ft | 459 kts | 271° |
| 2026-05-07 14:34 | 34.43074 | -108.40465 | 38121 ft | 458 kts | 271° |
| 2026-05-07 14:34 | 34.43433 | -108.48122 | 38112 ft | 459 kts | 271° |
| 2026-05-07 14:35 | 34.43783 | -108.55839 | 38121 ft | 459 kts | 271° |
| 2026-05-07 14:35 | 34.44128 | -108.63565 | 38118 ft | 460 kts | 271° |
| 2026-05-07 14:36 | 34.44470 | -108.71303 | 38110 ft | 460 kts | 271° |
| 2026-05-07 14:36 | 34.44808 | -108.79050 | 38109 ft | 461 kts | 271° |
| 2026-05-07 14:37 | 34.45139 | -108.86764 | 38106 ft | 462 kts | 271° |
| 2026-05-07 14:37 | 34.45632 | -108.98453 | 38131 ft | 464 kts | 271° |
| 2026-05-07 14:38 | 34.45956 | -109.06271 | 38162 ft | 465 kts | 271° |
| 2026-05-07 14:38 | 34.46275 | -109.14103 | 38203 ft | 466 kts | 271° |
| 2026-05-07 14:39 | 34.46588 | -109.21907 | 38229 ft | 468 kts | 271° |
| 2026-05-07 14:39 | 34.46899 | -109.29789 | 38260 ft | 469 kts | 271° |
| 2026-05-07 14:40 | 34.47206 | -109.37693 | 38260 ft | 470 kts | 271° |
| 2026-05-07 14:40 | 34.47509 | -109.45609 | 38259 ft | 470 kts | 271° |
| 2026-05-07 14:41 | 34.47804 | -109.53478 | 38234 ft | 471 kts | 271° |
| 2026-05-07 14:41 | 34.48097 | -109.61421 | 38201 ft | 472 kts | 271° |
| 2026-05-07 14:42 | 34.48385 | -109.69377 | 38114 ft | 473 kts | 271° |
| 2026-05-07 14:42 | 34.48669 | -109.77340 | 38114 ft | 473 kts | 271° |
| 2026-05-07 14:43 | 34.48945 | -109.85257 | 38110 ft | 474 kts | 271° |
| 2026-05-07 14:43 | 34.49219 | -109.93242 | 38124 ft | 475 kts | 272° |
| 2026-05-07 14:44 | 34.49488 | -110.01246 | 38122 ft | 476 kts | 271° |
| 2026-05-07 14:44 | 34.49752 | -110.09264 | 38120 ft | 476 kts | 272° |
| 2026-05-07 14:45 | 34.50012 | -110.17296 | 38113 ft | 478 kts | 272° |
| 2026-05-07 14:45 | 34.50265 | -110.25303 | 38130 ft | 480 kts | 272° |
| 2026-05-07 14:46 | 34.50517 | -110.33413 | 38125 ft | 483 kts | 272° |
| 2026-05-07 14:46 | 34.50765 | -110.41565 | 38121 ft | 485 kts | 272° |
| 2026-05-07 14:47 | 34.51008 | -110.49751 | 38113 ft | 487 kts | 273° |
| 2026-05-07 14:47 | 34.51245 | -110.57911 | 38122 ft | 489 kts | 273° |
| 2026-05-07 14:48 | 34.51479 | -110.66161 | 38108 ft | 490 kts | 273° |
| 2026-05-07 14:48 | 34.51708 | -110.74429 | 38099 ft | 491 kts | 273° |
| 2026-05-07 14:49 | 34.51931 | -110.82702 | 38090 ft | 491 kts | 274° |
| 2026-05-07 14:49 | 34.52146 | -110.90925 | 38106 ft | 492 kts | 274° |
| 2026-05-07 14:50 | 34.52361 | -110.99232 | 38113 ft | 493 kts | 273° |
| 2026-05-07 14:50 | 34.52568 | -111.07552 | 38076 ft | 495 kts | 274° |
| 2026-05-07 14:51 | 34.52771 | -111.15893 | 38089 ft | 494 kts | 273° |
| 2026-05-07 14:51 | 34.52966 | -111.24166 | 38068 ft | 494 kts | 273° |
| 2026-05-07 14:52 | 34.53156 | -111.32470 | 38071 ft | 492 kts | 273° |
| 2026-05-07 14:52 | 34.53340 | -111.40759 | 38077 ft | 491 kts | 273° |
| 2026-05-07 14:53 | 34.53518 | -111.49035 | 38074 ft | 490 kts | 273° |
| 2026-05-07 14:53 | 34.53690 | -111.57237 | 38063 ft | 489 kts | 274° |
| 2026-05-07 14:54 | 34.53856 | -111.65477 | 38083 ft | 488 kts | 273° |
| 2026-05-07 14:54 | 34.54019 | -111.73686 | 38096 ft | 486 kts | 274° |
| 2026-05-07 14:55 | 34.54173 | -111.81883 | 38087 ft | 485 kts | 273° |
| 2026-05-07 14:55 | 34.54321 | -111.90056 | 38084 ft | 485 kts | 273° |
| 2026-05-07 14:56 | 34.54464 | -111.98170 | 38059 ft | 484 kts | 273° |
| 2026-05-07 14:56 | 34.54601 | -112.06335 | 38081 ft | 484 kts | 273° |
| 2026-05-07 14:57 | 34.54734 | -112.14498 | 38113 ft | 484 kts | 273° |
| 2026-05-07 14:57 | 34.54862 | -112.22659 | 38148 ft | 485 kts | 273° |
| 2026-05-07 14:58 | 34.54983 | -112.30783 | 38192 ft | 485 kts | 273° |
| 2026-05-07 14:58 | 34.55099 | -112.38973 | 38212 ft | 486 kts | 273° |
| 2026-05-07 14:59 | 34.55210 | -112.47180 | 38197 ft | 487 kts | 273° |
| 2026-05-07 14:59 | 34.55264 | -112.51290 | 38014 ft | 487 kts | 273° |
| 2026-05-07 14:59 | 34.55316 | -112.55396 | 38021 ft | 488 kts | 273° |
| 2026-05-07 15:00 | 34.55416 | -112.63575 | 38017 ft | 489 kts | 273° |
| 2026-05-07 15:00 | 34.55511 | -112.71827 | 38002 ft | 489 kts | 272° |
| 2026-05-07 15:01 | 34.55602 | -112.80076 | 38022 ft | 489 kts | 273° |
| 2026-05-07 15:01 | 34.55685 | -112.88327 | 37996 ft | 489 kts | 273° |
| 2026-05-07 15:02 | 34.55764 | -112.96510 | 37999 ft | 488 kts | 273° |
| 2026-05-07 15:02 | 34.55836 | -113.04728 | 37979 ft | 487 kts | 273° |
| 2026-05-07 15:03 | 34.55903 | -113.12933 | 37982 ft | 486 kts | 273° |
| 2026-05-07 15:03 | 34.55965 | -113.21121 | 37980 ft | 485 kts | 273° |
| 2026-05-07 15:04 | 34.56022 | -113.29239 | 37974 ft | 484 kts | 273° |
| 2026-05-07 15:04 | 34.56072 | -113.37405 | 37967 ft | 484 kts | 273° |
| 2026-05-07 15:05 | 34.56117 | -113.45561 | 37956 ft | 483 kts | 273° |
| 2026-05-07 15:05 | 34.56158 | -113.53705 | 37965 ft | 483 kts | 273° |
| 2026-05-07 15:06 | 34.56191 | -113.61795 | 37966 ft | 483 kts | 272° |
| 2026-05-07 15:06 | 34.55639 | -113.69936 | 37970 ft | 486 kts | 265° |
| 2026-05-07 15:07 | 34.54685 | -113.78060 | 37956 ft | 487 kts | 265° |
| 2026-05-07 15:07 | 34.53755 | -113.86181 | 37957 ft | 486 kts | 265° |
| 2026-05-07 15:08 | 34.52861 | -113.94257 | 37955 ft | 486 kts | 265° |
| 2026-05-07 15:08 | 34.51960 | -114.02384 | 37963 ft | 486 kts | 265° |
| 2026-05-07 15:09 | 34.50824 | -114.10473 | 37979 ft | 487 kts | 261° |
| 2026-05-07 15:09 | 34.49401 | -114.18496 | 38001 ft | 487 kts | 261° |
| 2026-05-07 15:10 | 34.47968 | -114.26457 | 38022 ft | 486 kts | 261° |
| 2026-05-07 15:10 | 34.46544 | -114.34470 | 38026 ft | 486 kts | 261° |
| 2026-05-07 15:11 | 34.45131 | -114.42471 | 37949 ft | 486 kts | 261° |
| 2026-05-07 15:11 | 34.43715 | -114.50472 | 37949 ft | 485 kts | 261° |
| 2026-05-07 15:12 | 34.42306 | -114.58401 | 37951 ft | 485 kts | 261° |
| 2026-05-07 15:12 | 34.40881 | -114.66377 | 37958 ft | 484 kts | 261° |
| 2026-05-07 15:13 | 34.39452 | -114.74342 | 37960 ft | 484 kts | 261° |
| 2026-05-07 15:13 | 34.38018 | -114.82301 | 37961 ft | 484 kts | 261° |
| 2026-05-07 15:14 | 34.36591 | -114.90201 | 37976 ft | 484 kts | 261° |
| 2026-05-07 15:14 | 34.35148 | -114.98156 | 37963 ft | 484 kts | 261° |
| 2026-05-07 15:15 | 34.33700 | -115.06101 | 37961 ft | 483 kts | 261° |
| 2026-05-07 15:15 | 34.32249 | -115.14034 | 37966 ft | 483 kts | 261° |
| 2026-05-07 15:16 | 34.30795 | -115.21951 | 37965 ft | 482 kts | 261° |
| 2026-05-07 15:16 | 34.29348 | -115.29802 | 37974 ft | 481 kts | 261° |
| 2026-05-07 15:17 | 34.27887 | -115.37698 | 37966 ft | 481 kts | 261° |
| 2026-05-07 15:17 | 34.26424 | -115.45575 | 37977 ft | 480 kts | 261° |
| 2026-05-07 15:18 | 34.24958 | -115.53442 | 37977 ft | 480 kts | 261° |
| 2026-05-07 15:18 | 34.23497 | -115.61251 | 37977 ft | 479 kts | 261° |
| 2026-05-07 15:19 | 34.22022 | -115.69105 | 37979 ft | 479 kts | 261° |
| 2026-05-07 15:19 | 34.20548 | -115.76921 | 37876 ft | 474 kts | 261° |
| 2026-05-07 15:20 | 34.19814 | -115.80798 | 37379 ft | 475 kts | 261° |
| 2026-05-07 15:20 | 34.19079 | -115.84682 | 36722 ft | 474 kts | 261° |
| 2026-05-07 15:20 | 34.18343 | -115.88559 | 36008 ft | 474 kts | 261° |
| 2026-05-07 15:20 | 34.17616 | -115.92392 | 35244 ft | 476 kts | 261° |
| 2026-05-07 15:21 | 34.16873 | -115.96302 | 34393 ft | 480 kts | 261° |
| 2026-05-07 15:21 | 34.16123 | -116.00239 | 33449 ft | 484 kts | 260° |
| 2026-05-07 15:21 | 34.15366 | -116.04198 | 32773 ft | 482 kts | 260° |
| 2026-05-07 15:21 | 34.14612 | -116.08130 | 32144 ft | 479 kts | 260° |
| 2026-05-07 15:22 | 34.13861 | -116.12036 | 31539 ft | 476 kts | 260° |
| 2026-05-07 15:22 | 34.13115 | -116.15913 | 30963 ft | 473 kts | 260° |
| 2026-05-07 15:22 | 34.12384 | -116.19714 | 30417 ft | 470 kts | 260° |
| 2026-05-07 15:22 | 34.11647 | -116.23541 | 29808 ft | 467 kts | 260° |
| 2026-05-07 15:23 | 34.10912 | -116.27352 | 29157 ft | 464 kts | 260° |
| 2026-05-07 15:23 | 34.10203 | -116.31124 | 28581 ft | 459 kts | 262° |
| 2026-05-07 15:23 | 34.09708 | -116.34904 | 28015 ft | 454 kts | 266° |
| 2026-05-07 15:23 | 34.09351 | -116.38668 | 27439 ft | 450 kts | 267° |
| 2026-05-07 15:24 | 34.09021 | -116.42402 | 26877 ft | 447 kts | 267° |
| 2026-05-07 15:24 | 34.08671 | -116.46118 | 26341 ft | 448 kts | 266° |
| 2026-05-07 15:24 | 34.08292 | -116.49855 | 25803 ft | 462 kts | 266° |
| 2026-05-07 15:24 | 34.07876 | -116.53752 | 25313 ft | 474 kts | 265° |
| 2026-05-07 15:25 | 34.07445 | -116.57688 | 25206 ft | 474 kts | 265° |
| 2026-05-07 15:25 | 34.07028 | -116.61641 | 24970 ft | 474 kts | 266° |
| 2026-05-07 15:25 | 34.06659 | -116.65551 | 24617 ft | 466 kts | 266° |
| 2026-05-07 15:25 | 34.06314 | -116.69354 | 24232 ft | 444 kts | 266° |
| 2026-05-07 15:26 | 34.05986 | -116.72970 | 23780 ft | 424 kts | 267° |
| 2026-05-07 15:26 | 34.05670 | -116.76438 | 23107 ft | 408 kts | 267° |
| 2026-05-07 15:26 | 34.05361 | -116.79793 | 22010 ft | 398 kts | 266° |
| 2026-05-07 15:26 | 34.05058 | -116.83034 | 21625 ft | 383 kts | 266° |
| 2026-05-07 15:27 | 34.04760 | -116.86224 | 21169 ft | 383 kts | 266° |
| 2026-05-07 15:27 | 34.04462 | -116.89385 | 20728 ft | 387 kts | 266° |
| 2026-05-07 15:27 | 34.04074 | -116.92626 | 20303 ft | 395 kts | 264° |
| 2026-05-07 15:27 | 34.03625 | -116.95907 | 19838 ft | 397 kts | 263° |
| 2026-05-07 15:28 | 34.03179 | -116.99193 | 19288 ft | 397 kts | 263° |
| 2026-05-07 15:28 | 34.02746 | -117.02475 | 18804 ft | 395 kts | 263° |
| 2026-05-07 15:28 | 34.02335 | -117.05743 | 18334 ft | 394 kts | 264° |
| 2026-05-07 15:28 | 34.01952 | -117.08999 | 17810 ft | 392 kts | 264° |
| 2026-05-07 15:29 | 34.01576 | -117.12241 | 17323 ft | 389 kts | 264° |
| 2026-05-07 15:29 | 34.01201 | -117.15460 | 16849 ft | 386 kts | 264° |
| 2026-05-07 15:29 | 34.00828 | -117.18611 | 16396 ft | 383 kts | 264° |
| 2026-05-07 15:29 | 34.00449 | -117.21778 | 16013 ft | 381 kts | 264° |
| 2026-05-07 15:30 | 34.00072 | -117.24926 | 15553 ft | 378 kts | 264° |
| 2026-05-07 15:30 | 33.99697 | -117.28055 | 15099 ft | 376 kts | 264° |
| 2026-05-07 15:30 | 33.99323 | -117.31165 | 14654 ft | 374 kts | 263° |
| 2026-05-07 15:30 | 33.98958 | -117.34254 | 14206 ft | 372 kts | 264° |
| 2026-05-07 15:31 | 33.98598 | -117.37329 | 13756 ft | 369 kts | 263° |
| 2026-05-07 15:31 | 33.98240 | -117.40387 | 13258 ft | 368 kts | 263° |
| 2026-05-07 15:31 | 33.97886 | -117.43395 | 12786 ft | 356 kts | 263° |
| 2026-05-07 15:31 | 33.97541 | -117.46308 | 12491 ft | 346 kts | 263° |
| 2026-05-07 15:32 | 33.97287 | -117.49087 | 12294 ft | 330 kts | 272° |
| 2026-05-07 15:32 | 33.97632 | -117.51811 | 11930 ft | 331 kts | 285° |
| 2026-05-07 15:32 | 33.98185 | -117.54521 | 11555 ft | 335 kts | 285° |
| 2026-05-07 15:32 | 33.98714 | -117.57255 | 11160 ft | 336 kts | 284° |
| 2026-05-07 15:33 | 33.99218 | -117.59999 | 10758 ft | 334 kts | 283° |
| 2026-05-07 15:33 | 33.99706 | -117.62727 | 10438 ft | 331 kts | 283° |
| 2026-05-07 15:33 | 34.00177 | -117.65394 | 10294 ft | 321 kts | 283° |
| 2026-05-07 15:33 | 34.00611 | -117.67956 | 10138 ft | 309 kts | 279° |
| 2026-05-07 15:34 | 34.00622 | -117.70487 | 10009 ft | 298 kts | 264° |
| 2026-05-07 15:34 | 34.00354 | -117.72957 | 9671 ft | 297 kts | 262° |
| 2026-05-07 15:34 | 34.00063 | -117.75411 | 9341 ft | 295 kts | 262° |
| 2026-05-07 15:34 | 33.99784 | -117.77857 | 9022 ft | 294 kts | 263° |
| 2026-05-07 15:35 | 33.99528 | -117.80293 | 8696 ft | 293 kts | 263° |
| 2026-05-07 15:35 | 33.99282 | -117.82727 | 8363 ft | 292 kts | 263° |
| 2026-05-07 15:35 | 33.99043 | -117.85153 | 8038 ft | 291 kts | 263° |
| 2026-05-07 15:35 | 33.98811 | -117.87530 | 7698 ft | 280 kts | 263° |
| 2026-05-07 15:36 | 33.98630 | -117.89814 | 7375 ft | 268 kts | 265° |
| 2026-05-07 15:36 | 33.98463 | -117.91981 | 7095 ft | 257 kts | 264° |
| 2026-05-07 15:36 | 33.98271 | -117.94080 | 6812 ft | 247 kts | 263° |
| 2026-05-07 15:36 | 33.98069 | -117.96094 | 6525 ft | 236 kts | 263° |
| 2026-05-07 15:37 | 33.97875 | -117.98015 | 6252 ft | 226 kts | 263° |
| 2026-05-07 15:37 | 33.97686 | -117.99868 | 6053 ft | 220 kts | 263° |
| 2026-05-07 15:37 | 33.97501 | -118.01679 | 5800 ft | 217 kts | 263° |
| 2026-05-07 15:37 | 33.97316 | -118.03471 | 5540 ft | 214 kts | 263° |
| 2026-05-07 15:38 | 33.97135 | -118.05226 | 5327 ft | 209 kts | 263° |
| 2026-05-07 15:38 | 33.96957 | -118.06949 | 5078 ft | 206 kts | 263° |
| 2026-05-07 15:38 | 33.96783 | -118.08647 | 4820 ft | 203 kts | 263° |
| 2026-05-07 15:38 | 33.96614 | -118.10296 | 4561 ft | 200 kts | 263° |
| 2026-05-07 15:39 | 33.96443 | -118.11954 | 4297 ft | 199 kts | 263° |
| 2026-05-07 15:39 | 33.96275 | -118.13597 | 4046 ft | 197 kts | 263° |
| 2026-05-07 15:39 | 33.96107 | -118.15227 | 3794 ft | 195 kts | 263° |
| 2026-05-07 15:39 | 33.95941 | -118.16839 | 3540 ft | 193 kts | 264° |
| 2026-05-07 15:40 | 33.95777 | -118.18435 | 3310 ft | 191 kts | 263° |
| 2026-05-07 15:40 | 33.95615 | -118.20019 | 3066 ft | 190 kts | 263° |
| 2026-05-07 15:40 | 33.95454 | -118.21579 | 2849 ft | 184 kts | 264° |
| 2026-05-07 15:40 | 33.95298 | -118.23096 | 2582 ft | 180 kts | 264° |
| 2026-05-07 15:41 | 33.95149 | -118.24541 | 2356 ft | 171 kts | 264° |
| 2026-05-07 15:41 | 33.95010 | -118.25899 | 2116 ft | 156 kts | 264° |
| 2026-05-07 15:41 | 33.94878 | -118.27186 | 1952 ft | 155 kts | 264° |
| 2026-05-07 15:41 | 33.94745 | -118.28477 | 1734 ft | 155 kts | 263° |
| 2026-05-07 15:42 | 33.94614 | -118.29760 | 1502 ft | 153 kts | 263° |
| 2026-05-07 15:42 | 33.94483 | -118.31028 | 1311 ft | 152 kts | 263° |
| 2026-05-07 15:42 | 33.94353 | -118.32294 | 1112 ft | 152 kts | 263° |
| 2026-05-07 15:42 | 33.94224 | -118.33553 | 908 ft | 151 kts | 262° |
| 2026-05-07 15:43 | 33.94095 | -118.34803 | 702 ft | 150 kts | 263° |
| 2026-05-07 15:43 | 33.93966 | -118.36027 | 495 ft | 149 kts | 262° |
| 2026-05-07 15:43 | 33.93832 | -118.37266 | 300 ft | 149 kts | 263° |
| 2026-05-07 15:43 | 33.93714 | -118.38494 | 136 ft | 147 kts | 263° |
| 2026-05-07 15:44 | 33.93597 | -118.39658 | 102 ft | 129 kts | 263° |
| 2026-05-07 15:44 | 33.93499 | -118.40578 | 100 ft | 93 kts | 263° |
| 2026-05-07 15:44 | 33.93444 | -118.41121 | 99 ft | 27 kts | 263° |
| 2026-05-07 15:44 | 33.93496 | -118.41242 | 99 ft | 12 kts | 345° |
| 2026-05-07 15:45 | 33.93533 | -118.41251 | 100 ft | 0 kts | 352° |
| 2026-05-07 15:45 | 33.93537 | -118.41251 | 101 ft | 2 kts | 352° |
| 2026-05-07 15:45 | 33.93586 | -118.41259 | 101 ft | 13 kts | 353° |
| 2026-05-07 15:46 | 33.93749 | -118.41217 | 102 ft | 16 kts | 65° |
| 2026-05-07 15:46 | 33.93769 | -118.41076 | 100 ft | 15 kts | 83° |
| 2026-05-07 15:46 | 33.93783 | -118.40936 | 99 ft | 19 kts | 83° |
| 2026-05-07 15:47 | 33.93796 | -118.40803 | 102 ft | 12 kts | 80° |
| 2026-05-07 15:47 | 33.93868 | -118.40758 | 99 ft | 9 kts | 324° |
| 2026-05-07 15:47 | 33.93922 | -118.40804 | 100 ft | 11 kts | 342° |
| 2026-05-07 15:47 | 33.94009 | -118.40822 | 99 ft | 12 kts | 352° |
| 2026-05-07 15:48 | 33.94038 | -118.40827 | 99 ft | 0 kts | 353° |
| 2026-05-07 15:48 | 33.94057 | -118.40829 | 99 ft | 2 kts | 4° |
| 2026-05-07 15:48 | 33.94081 | -118.40803 | 100 ft | 5 kts | 58° |
| 2026-05-07 15:48 | 33.94095 | -118.40770 | 99 ft | 4 kts | 65° |
| 2026-05-07 15:49 | 33.94101 | -118.40755 | 100 ft | 2 kts | 66° |
| 2026-05-07 15:49 | 33.94104 | -118.40746 | 100 ft | 0 kts | 68° |
| 2026-05-07 15:49 | 33.94104 | -118.40745 | 100 ft | 0 kts | 68° |